Flight Track Log - Related Links

Times and Time Zones

All times are in EDT time to prevent confusion due to time zone crossing. See the SLI2074 flight status page for this flight to view local times or setup timezone preferences in your user account.

Time Position Orientation Groundspeed Altitude Reporting Facility
EDT Latitude Longitude Course Direction KTS MPH feet Rate Location/Type
Thu 11:34:00 PM 20.1982 -100.7630 296° West  Level Estimated
Thu 11:35:00 PM 20.2521 -100.8845 295° West  Level Estimated
Thu 11:36:00 PM 20.3058 -101.0059 295° West  Level Estimated
Thu 11:37:00 PM 20.3594 -101.1275 295° West  Level Estimated
Thu 11:38:00 PM 20.4130 -101.2492 295° West  Level Estimated
Thu 11:39:00 PM 20.4664 -101.3709 295° West  Level Estimated
Thu 11:40:00 PM 20.5198 -101.4927 295° West  Level Estimated
Thu 11:41:00 PM 20.5731 -101.6146 295° West  Level Estimated
Thu 11:42:00 PM 20.6264 -101.7366 295° West  Level Estimated
Thu 11:43:00 PM 20.6795 -101.8587 295° West  Level Estimated
Thu 11:44:00 PM 20.7325 -101.9809 295° West  Level Estimated
Thu 11:45:00 PM 20.7855 -102.1031 295° West  Level Estimated
Thu 11:46:00 PM 20.8384 -102.2255 295° West  Level Estimated
Thu 11:47:00 PM 20.8912 -102.3479 295° West  Level Estimated
Thu 11:48:00 PM 20.9439 -102.4704 295° West  Level Estimated
Thu 11:49:00 PM 20.9965 -102.5930 295° West  Level Estimated
Thu 11:50:00 PM 21.0490 -102.7157 295° West  Level Estimated
Thu 11:51:00 PM 21.1014 -102.8385 295° West  Level Estimated
Thu 11:52:00 PM 21.1538 -102.9613 295° West  Level Estimated
Thu 11:53:00 PM 21.2060 -103.0843 295° West  Level Estimated
Thu 11:54:00 PM 21.2582 -103.2073 294° West  Level Estimated
Thu 11:55:00 PM 21.3103 -103.3304 294° West  Level Estimated
Thu 11:56:00 PM 21.3623 -103.4536 294° West  Level Estimated
Thu 11:57:00 PM 21.4142 -103.5769 294° West  Level Estimated
Thu 11:58:00 PM 21.4660 -103.7003 294° West  Level Estimated
Thu 11:59:00 PM 21.5177 -103.8238 294° West  Level Estimated
Fri 12:00:00 AM 21.5693 -103.9473 294° West  Level Estimated
Fri 12:01:00 AM 21.6209 -104.0710 294° West  Level Estimated
Fri 12:02:00 AM 21.6723 -104.1947 294° West  Level Estimated
Fri 12:03:00 AM 21.7237 -104.3185 294° West  Level Estimated
Fri 12:04:00 AM 21.7749 -104.4424 294° West  Level Estimated
Fri 12:05:00 AM 21.8261 -104.5664 294° West  Level Estimated
Fri 12:06:00 AM 21.8772 -104.6905 294° West  Level Estimated
Fri 12:07:00 AM 21.9282 -104.8147 294° West  Level Estimated
Fri 12:08:00 AM 21.9790 -104.9390 294° West  Level Estimated
Fri 12:09:00 AM 22.0299 -105.0633 294° West  Level Estimated
Fri 12:10:00 AM 22.0805 -105.1878 294° West  Level Estimated
Fri 12:11:00 AM 22.1312 -105.3123 294° West  Level Estimated
Fri 12:12:00 AM 22.1817 -105.4369 294° West  Level Estimated
Fri 12:13:00 AM 22.2321 -105.5616 294° West  Level Estimated
Fri 12:14:00 AM 22.2824 -105.6864 294° West  Level Estimated
Fri 12:15:00 AM 22.3326 -105.8113 294° West  Level Estimated
Fri 12:16:00 AM 22.3828 -105.9363 293° West  Level Estimated
Fri 12:17:00 AM 22.4328 -106.0613 293° West  Level Estimated
Fri 12:18:00 AM 22.4827 -106.1865 293° West  Level Estimated
Fri 12:19:00 AM 22.5326 -106.3118 293° West  Level Estimated
Fri 12:20:00 AM 22.5823 -106.4371 293° West  Level Estimated
Fri 12:21:00 AM 22.6320 -106.5625 293° West  Level Estimated
Fri 12:22:00 AM 22.6815 -106.6880 293° West  Level Estimated
Fri 12:23:00 AM 22.7310 -106.8137 293° West  Level Estimated
Fri 12:24:00 AM 22.7803 -106.9394 293° West  Level Estimated
Fri 12:25:00 AM 22.8296 -107.0651 293° West  Level Estimated
Fri 12:26:00 AM 22.8788 -107.1910 293° West  Level Estimated
Fri 12:27:00 AM 22.9278 -107.3170 293° West  Level Estimated
Fri 12:28:00 AM 22.9768 -107.4431 293° West  Level Estimated
Fri 12:29:00 AM 23.0257 -107.5692 293° West  Level Estimated
Fri 12:30:00 AM 23.0744 -107.6955 293° West  Level Estimated
Fri 12:31:00 AM 23.1231 -107.8218 293° West  Level Estimated
Fri 12:32:00 AM 23.1716 -107.9483 293° West  Level Estimated
Fri 12:33:00 AM 23.2201 -108.0748 293° West  Level Estimated
Fri 12:34:00 AM 23.2684 -108.2014 293° West  Level Estimated
Fri 12:35:00 AM 23.3167 -108.3281 293° West  Level Estimated
Fri 12:36:00 AM 23.3648 -108.4549 292° West  Level Estimated
Fri 12:37:00 AM 23.4129 -108.5818 292° West  Level Estimated
Fri 12:38:00 AM 23.4608 -108.7088 292° West  Level Estimated
Fri 12:39:00 AM 23.5087 -108.8359 292° West  Level Estimated
Fri 12:40:00 AM 23.5564 -108.9630 292° West  Level Estimated
Fri 12:41:00 AM 23.6041 -109.0903 292° West  Level Estimated
Fri 12:42:00 AM 23.6516 -109.2176 292° West  Level Estimated
Fri 12:43:00 AM 23.6990 -109.3451 292° West  Level Estimated
Fri 12:44:00 AM 23.7464 -109.4726 292° West  Level Estimated
Fri 12:45:00 AM 23.7936 -109.6003 292° West  Level Estimated
Fri 12:46:00 AM 23.8407 -109.7280 292° West  Level Estimated
Fri 12:47:00 AM 23.8877 -109.8558 292° West  Level Estimated
Fri 12:48:00 AM 23.9346 -109.9837 292° West  Level Estimated
Fri 12:49:00 AM 23.9814 -110.1117 292° West  Level Estimated
Fri 12:50:00 AM 24.0281 -110.2398 292° West  Level Estimated
Fri 12:51:00 AM 24.0727 -110.3625 292° West  Level Estimated
Fri 12:52:00 AM 24.0727 -110.3625 49° Northeast  Level Estimated
Fri 12:53:00 AM 24.0727 -110.3625 49° Northeast  Level Estimated
Fri 12:54:00 AM 24.0727 -110.3625 49° Northeast  Level Estimated
Fri 12:55:00 AM 24.0727 -110.3625 49° Northeast  Level Estimated
Fri 12:56:00 AM 24.0727 -110.3625 49° Northeast  Level Estimated
Fri 12:57:00 AM 24.0727 -110.3625 49° Northeast  Level Estimated
Fri 12:58:00 AM 24.0727 -110.3625 49° Northeast  Level Estimated
Fri 12:59:00 AM 24.0727 -110.3625 49° Northeast  Level Estimated
Fri 01:00:00 AM 24.0727 -110.3625 49° Northeast  Level Estimated
Fri 01:01:00 AM 24.0727 -110.3625 49° Northeast  Level Estimated
Fri 01:02:00 AM 24.0727 -110.3625 49° Northeast  Level Estimated
Fri 01:03:00 AM 24.0727 -110.3625 49° Northeast  Level Estimated
Fri 01:04:00 AM 24.0727 -110.3625 49° Northeast  Level Estimated
Fri 01:05:00 AM 24.0727 -110.3625 49° Northeast  Level Estimated
Fri 01:06:00 AM 24.0727 -110.3625 49° Northeast  Level Estimated
Fri 01:07:00 AM 24.0727 -110.3625 49° Northeast  Level Estimated

Login

Don't have an account? Register now (free) for customized features, flight alerts, and more!